sensor_id;sensor_type;location;lat;lon;timestamp;temperature;humidity
71082;SHT31;58740;50.672;18.690;2022-07-23T00:00:33;22.72;58.54
71082;SHT31;58740;50.672;18.690;2022-07-23T00:03:06;22.69;58.55
71082;SHT31;58740;50.672;18.690;2022-07-23T00:05:34;22.67;58.62
71082;SHT31;58740;50.672;18.690;2022-07-23T00:08:04;22.66;58.58
71082;SHT31;58740;50.672;18.690;2022-07-23T00:10:40;22.63;58.57
71082;SHT31;58740;50.672;18.690;2022-07-23T00:13:09;22.60;58.58
71082;SHT31;58740;50.672;18.690;2022-07-23T00:15:36;22.56;58.73
71082;SHT31;58740;50.672;18.690;2022-07-23T00:18:04;22.54;58.88
71082;SHT31;58740;50.672;18.690;2022-07-23T00:20:32;22.49;58.85
71082;SHT31;58740;50.672;18.690;2022-07-23T00:23:00;22.45;59.09
71082;SHT31;58740;50.672;18.690;2022-07-23T00:25:28;22.45;59.24
71082;SHT31;58740;50.672;18.690;2022-07-23T00:27:58;22.45;59.13
71082;SHT31;58740;50.672;18.690;2022-07-23T00:30:27;22.43;59.14
71082;SHT31;58740;50.672;18.690;2022-07-23T00:33:00;22.41;59.17
71082;SHT31;58740;50.672;18.690;2022-07-23T00:35:32;22.38;59.34
71082;SHT31;58740;50.672;18.690;2022-07-23T00:38:03;22.35;59.38
71082;SHT31;58740;50.672;18.690;2022-07-23T00:40:32;22.31;59.51
71082;SHT31;58740;50.672;18.690;2022-07-23T00:43:01;22.26;59.56
71082;SHT31;58740;50.672;18.690;2022-07-23T00:45:29;22.21;59.55
71082;SHT31;58740;50.672;18.690;2022-07-23T00:47:57;22.18;59.63
71082;SHT31;58740;50.672;18.690;2022-07-23T00:50:27;22.16;59.61
71082;SHT31;58740;50.672;18.690;2022-07-23T00:52:55;22.16;59.56
71082;SHT31;58740;50.672;18.690;2022-07-23T00:55:23;22.15;59.60
71082;SHT31;58740;50.672;18.690;2022-07-23T00:57:51;22.15;59.60
71082;SHT31;58740;50.672;18.690;2022-07-23T01:00:21;22.14;59.74
71082;SHT31;58740;50.672;18.690;2022-07-23T01:02:49;22.12;59.75
71082;SHT31;58740;50.672;18.690;2022-07-23T01:05:17;22.09;59.83
71082;SHT31;58740;50.672;18.690;2022-07-23T01:07:49;22.06;59.99
71082;SHT31;58740;50.672;18.690;2022-07-23T01:10:23;22.06;60.11
71082;SHT31;58740;50.672;18.690;2022-07-23T01:13:05;22.06;60.10
71082;SHT31;58740;50.672;18.690;2022-07-23T01:15:36;22.07;60.19
71082;SHT31;58740;50.672;18.690;2022-07-23T01:18:06;22.06;60.33
71082;SHT31;58740;50.672;18.690;2022-07-23T01:20:35;22.09;60.33
71082;SHT31;58740;50.672;18.690;2022-07-23T01:23:04;22.08;60.27
71082;SHT31;58740;50.672;18.690;2022-07-23T01:25:32;22.07;60.14
71082;SHT31;58740;50.672;18.690;2022-07-23T01:28:00;22.04;60.13
71082;SHT31;58740;50.672;18.690;2022-07-23T01:30:28;22.01;60.18
71082;SHT31;58740;50.672;18.690;2022-07-23T01:32:56;22.00;60.19
71082;SHT31;58740;50.672;18.690;2022-07-23T01:35:23;21.98;60.26
71082;SHT31;58740;50.672;18.690;2022-07-23T01:37:51;21.95;60.33
71082;SHT31;58740;50.672;18.690;2022-07-23T01:40:20;21.92;60.39
71082;SHT31;58740;50.672;18.690;2022-07-23T01:42:49;21.90;60.38
71082;SHT31;58740;50.672;18.690;2022-07-23T01:45:17;21.86;60.38
71082;SHT31;58740;50.672;18.690;2022-07-23T01:47:44;21.81;60.51
71082;SHT31;58740;50.672;18.690;2022-07-23T01:50:14;21.78;60.62
71082;SHT31;58740;50.672;18.690;2022-07-23T01:52:41;21.75;60.70
71082;SHT31;58740;50.672;18.690;2022-07-23T01:55:09;21.72;60.86
71082;SHT31;58740;50.672;18.690;2022-07-23T01:57:45;21.69;60.94
71082;SHT31;58740;50.672;18.690;2022-07-23T02:00:14;21.65;61.02
71082;SHT31;58740;50.672;18.690;2022-07-23T02:02:42;21.62;61.10
71082;SHT31;58740;50.672;18.690;2022-07-23T02:05:10;21.61;61.16
71082;SHT31;58740;50.672;18.690;2022-07-23T02:07:38;21.60;61.38
71082;SHT31;58740;50.672;18.690;2022-07-23T02:10:06;21.58;61.48
71082;SHT31;58740;50.672;18.690;2022-07-23T02:12:34;21.58;61.42
71082;SHT31;58740;50.672;18.690;2022-07-23T02:15:03;21.56;61.44
71082;SHT31;58740;50.672;18.690;2022-07-23T02:17:32;21.55;61.48
71082;SHT31;58740;50.672;18.690;2022-07-23T02:19:59;21.53;61.49
71082;SHT31;58740;50.672;18.690;2022-07-23T02:22:27;21.50;61.57
71082;SHT31;58740;50.672;18.690;2022-07-23T02:24:55;21.47;61.70
71082;SHT31;58740;50.672;18.690;2022-07-23T02:27:22;21.46;61.76
71082;SHT31;58740;50.672;18.690;2022-07-23T02:29:50;21.43;61.66
71082;SHT31;58740;50.672;18.690;2022-07-23T02:32:18;21.45;61.59
71082;SHT31;58740;50.672;18.690;2022-07-23T02:34:45;21.44;61.56
71082;SHT31;58740;50.672;18.690;2022-07-23T02:37:13;21.42;61.50
71082;SHT31;58740;50.672;18.690;2022-07-23T02:39:41;21.42;61.46
71082;SHT31;58740;50.672;18.690;2022-07-23T02:42:09;21.42;61.41
71082;SHT31;58740;50.672;18.690;2022-07-23T02:44:37;21.42;61.24
71082;SHT31;58740;50.672;18.690;2022-07-23T02:47:04;21.41;61.43
71082;SHT31;58740;50.672;18.690;2022-07-23T02:49:33;21.37;61.48
71082;SHT31;58740;50.672;18.690;2022-07-23T02:52:01;21.37;61.42
71082;SHT31;58740;50.672;18.690;2022-07-23T02:54:29;21.37;61.38
71082;SHT31;58740;50.672;18.690;2022-07-23T02:56:57;21.35;61.55
71082;SHT31;58740;50.672;18.690;2022-07-23T02:59:25;21.31;61.62
71082;SHT31;58740;50.672;18.690;2022-07-23T03:01:52;21.27;61.74
71082;SHT31;58740;50.672;18.690;2022-07-23T03:04:20;21.25;61.76
71082;SHT31;58740;50.672;18.690;2022-07-23T03:06:48;21.23;61.78
71082;SHT31;58740;50.672;18.690;2022-07-23T03:09:16;21.24;61.82
71082;SHT31;58740;50.672;18.690;2022-07-23T03:11:43;21.25;61.79
71082;SHT31;58740;50.672;18.690;2022-07-23T03:14:11;21.23;61.92
71082;SHT31;58740;50.672;18.690;2022-07-23T03:16:40;21.22;62.00
71082;SHT31;58740;50.672;18.690;2022-07-23T03:19:08;21.22;62.09
71082;SHT31;58740;50.672;18.690;2022-07-23T03:21:36;21.19;62.24
71082;SHT31;58740;50.672;18.690;2022-07-23T03:24:08;21.17;62.26
71082;SHT31;58740;50.672;18.690;2022-07-23T03:26:37;21.15;62.22
71082;SHT31;58740;50.672;18.690;2022-07-23T03:29:04;21.18;62.27
71082;SHT31;58740;50.672;18.690;2022-07-23T03:31:32;21.21;62.39
71082;SHT31;58740;50.672;18.690;2022-07-23T03:34:00;21.20;62.39
71082;SHT31;58740;50.672;18.690;2022-07-23T03:36:28;21.19;62.39
71082;SHT31;58740;50.672;18.690;2022-07-23T03:38:56;21.21;62.19
71082;SHT31;58740;50.672;18.690;2022-07-23T03:41:27;21.25;62.21
71082;SHT31;58740;50.672;18.690;2022-07-23T03:43:56;21.29;62.37
71082;SHT31;58740;50.672;18.690;2022-07-23T03:46:24;21.26;62.46
71082;SHT31;58740;50.672;18.690;2022-07-23T03:48:51;21.26;62.62
71082;SHT31;58740;50.672;18.690;2022-07-23T03:51:25;21.25;62.61
71082;SHT31;58740;50.672;18.690;2022-07-23T03:53:53;21.29;62.67
71082;SHT31;58740;50.672;18.690;2022-07-23T03:56:21;21.35;63.13
71082;SHT31;58740;50.672;18.690;2022-07-23T03:58:49;21.40;63.29
71082;SHT31;58740;50.672;18.690;2022-07-23T04:01:17;21.46;63.12
71082;SHT31;58740;50.672;18.690;2022-07-23T04:03:45;21.52;62.89
71082;SHT31;58740;50.672;18.690;2022-07-23T04:06:13;21.58;62.71
71082;SHT31;58740;50.672;18.690;2022-07-23T04:08:41;21.63;62.77
71082;SHT31;58740;50.672;18.690;2022-07-23T04:11:09;21.68;62.61
71082;SHT31;58740;50.672;18.690;2022-07-23T04:13:37;21.75;62.24
71082;SHT31;58740;50.672;18.690;2022-07-23T04:16:05;21.84;62.00
71082;SHT31;58740;50.672;18.690;2022-07-23T04:18:33;21.91;61.77
71082;SHT31;58740;50.672;18.690;2022-07-23T04:21:01;22.00;61.61
71082;SHT31;58740;50.672;18.690;2022-07-23T04:23:29;22.07;61.57
71082;SHT31;58740;50.672;18.690;2022-07-23T04:25:57;22.16;61.42
71082;SHT31;58740;50.672;18.690;2022-07-23T04:28:24;22.23;61.27
71082;SHT31;58740;50.672;18.690;2022-07-23T04:30:52;22.29;61.37
71082;SHT31;58740;50.672;18.690;2022-07-23T04:33:23;22.33;61.17
71082;SHT31;58740;50.672;18.690;2022-07-23T04:35:50;22.39;61.19
71082;SHT31;58740;50.672;18.690;2022-07-23T04:38:19;22.43;61.01
71082;SHT31;58740;50.672;18.690;2022-07-23T04:40:47;22.48;61.15
71082;SHT31;58740;50.672;18.690;2022-07-23T04:43:15;22.55;61.27
71082;SHT31;58740;50.672;18.690;2022-07-23T04:45:42;22.59;61.11
71082;SHT31;58740;50.672;18.690;2022-07-23T04:48:10;22.63;61.27
71082;SHT31;58740;50.672;18.690;2022-07-23T04:50:38;22.67;61.21
71082;SHT31;58740;50.672;18.690;2022-07-23T04:53:06;22.70;61.11
71082;SHT31;58740;50.672;18.690;2022-07-23T04:55:34;22.74;60.87
71082;SHT31;58740;50.672;18.690;2022-07-23T04:58:01;22.80;60.44
71082;SHT31;58740;50.672;18.690;2022-07-23T05:00:29;22.86;60.34
71082;SHT31;58740;50.672;18.690;2022-07-23T05:02:57;22.93;60.15
71082;SHT31;58740;50.672;18.690;2022-07-23T05:05:24;23.00;60.14
71082;SHT31;58740;50.672;18.690;2022-07-23T05:07:52;23.08;60.02
71082;SHT31;58740;50.672;18.690;2022-07-23T05:10:20;23.15;59.85
71082;SHT31;58740;50.672;18.690;2022-07-23T05:12:47;23.23;59.78
71082;SHT31;58740;50.672;18.690;2022-07-23T05:15:15;23.28;59.83
71082;SHT31;58740;50.672;18.690;2022-07-23T05:17:43;23.33;59.50
71082;SHT31;58740;50.672;18.690;2022-07-23T05:20:10;23.37;59.66
71082;SHT31;58740;50.672;18.690;2022-07-23T05:22:38;23.43;59.52
71082;SHT31;58740;50.672;18.690;2022-07-23T05:25:06;23.51;59.14
71082;SHT31;58740;50.672;18.690;2022-07-23T05:27:35;23.58;59.08
71082;SHT31;58740;50.672;18.690;2022-07-23T05:30:03;23.64;58.61
71082;SHT31;58740;50.672;18.690;2022-07-23T05:32:31;23.69;58.29
71082;SHT31;58740;50.672;18.690;2022-07-23T05:35:00;23.76;58.19
71082;SHT31;58740;50.672;18.690;2022-07-23T05:37:28;23.84;58.10
71082;SHT31;58740;50.672;18.690;2022-07-23T05:39:59;23.92;58.14
71082;SHT31;58740;50.672;18.690;2022-07-23T05:42:30;24.00;57.72
71082;SHT31;58740;50.672;18.690;2022-07-23T05:44:57;24.07;57.45
71082;SHT31;58740;50.672;18.690;2022-07-23T05:47:25;24.17;57.28
71082;SHT31;58740;50.672;18.690;2022-07-23T05:49:53;24.28;57.16
71082;SHT31;58740;50.672;18.690;2022-07-23T05:52:23;24.39;56.63
71082;SHT31;58740;50.672;18.690;2022-07-23T05:54:51;24.48;56.21
71082;SHT31;58740;50.672;18.690;2022-07-23T05:57:19;24.58;56.03
71082;SHT31;58740;50.672;18.690;2022-07-23T05:59:51;24.67;55.55
71082;SHT31;58740;50.672;18.690;2022-07-23T06:02:19;24.74;55.47
71082;SHT31;58740;50.672;18.690;2022-07-23T06:04:46;24.86;55.39
71082;SHT31;58740;50.672;18.690;2022-07-23T06:07:14;25.00;55.42
71082;SHT31;58740;50.672;18.690;2022-07-23T06:09:42;25.14;55.33
71082;SHT31;58740;50.672;18.690;2022-07-23T06:12:10;25.29;55.29
71082;SHT31;58740;50.672;18.690;2022-07-23T06:14:37;25.45;55.09
71082;SHT31;58740;50.672;18.690;2022-07-23T06:17:05;25.60;54.84
71082;SHT31;58740;50.672;18.690;2022-07-23T06:19:33;25.77;54.19
71082;SHT31;58740;50.672;18.690;2022-07-23T06:22:00;25.90;53.57
71082;SHT31;58740;50.672;18.690;2022-07-23T06:24:28;26.01;53.46
71082;SHT31;58740;50.672;18.690;2022-07-23T06:26:56;26.15;53.08
71082;SHT31;58740;50.672;18.690;2022-07-23T06:29:24;26.26;53.08
71082;SHT31;58740;50.672;18.690;2022-07-23T06:31:51;26.38;52.89
71082;SHT31;58740;50.672;18.690;2022-07-23T06:34:19;26.50;52.12
71082;SHT31;58740;50.672;18.690;2022-07-23T06:36:46;26.58;52.09
71082;SHT31;58740;50.672;18.690;2022-07-23T06:39:14;26.69;51.33
71082;SHT31;58740;50.672;18.690;2022-07-23T06:41:43;26.78;51.21
71082;SHT31;58740;50.672;18.690;2022-07-23T06:44:16;26.90;50.81
71082;SHT31;58740;50.672;18.690;2022-07-23T06:46:45;26.99;50.75
71082;SHT31;58740;50.672;18.690;2022-07-23T06:49:13;27.07;50.81
71082;SHT31;58740;50.672;18.690;2022-07-23T06:51:41;27.20;51.22
71082;SHT31;58740;50.672;18.690;2022-07-23T06:54:09;27.32;50.82
71082;SHT31;58740;50.672;18.690;2022-07-23T06:56:37;27.42;50.73
71082;SHT31;58740;50.672;18.690;2022-07-23T06:59:04;27.54;50.60
71082;SHT31;58740;50.672;18.690;2022-07-23T07:01:33;27.62;49.38
71082;SHT31;58740;50.672;18.690;2022-07-23T07:04:01;27.69;48.82
71082;SHT31;58740;50.672;18.690;2022-07-23T07:06:28;27.79;48.89
71082;SHT31;58740;50.672;18.690;2022-07-23T07:08:56;27.90;48.23
71082;SHT31;58740;50.672;18.690;2022-07-23T07:11:24;28.00;48.45
71082;SHT31;58740;50.672;18.690;2022-07-23T07:13:52;28.11;47.93
71082;SHT31;58740;50.672;18.690;2022-07-23T07:16:20;28.17;47.32
71082;SHT31;58740;50.672;18.690;2022-07-23T07:18:48;28.22;46.81
71082;SHT31;58740;50.672;18.690;2022-07-23T07:21:16;28.26;46.74
71082;SHT31;58740;50.672;18.690;2022-07-23T07:23:43;28.38;46.59
71082;SHT31;58740;50.672;18.690;2022-07-23T07:26:11;28.47;46.34
71082;SHT31;58740;50.672;18.690;2022-07-23T07:28:39;28.56;46.33
71082;SHT31;58740;50.672;18.690;2022-07-23T07:31:06;28.69;45.64
71082;SHT31;58740;50.672;18.690;2022-07-23T07:33:34;28.78;45.35
71082;SHT31;58740;50.672;18.690;2022-07-23T07:36:02;28.81;44.75
71082;SHT31;58740;50.672;18.690;2022-07-23T07:38:31;28.81;44.06
71082;SHT31;58740;50.672;18.690;2022-07-23T07:40:58;28.83;43.15
71082;SHT31;58740;50.672;18.690;2022-07-23T07:43:26;28.88;41.80
71082;SHT31;58740;50.672;18.690;2022-07-23T07:45:54;28.94;42.32
71082;SHT31;58740;50.672;18.690;2022-07-23T07:48:22;29.05;42.22
71082;SHT31;58740;50.672;18.690;2022-07-23T07:50:49;29.12;41.28
71082;SHT31;58740;50.672;18.690;2022-07-23T07:53:18;29.18;41.55
71082;SHT31;58740;50.672;18.690;2022-07-23T07:55:45;29.26;40.45
71082;SHT31;58740;50.672;18.690;2022-07-23T07:58:18;29.28;40.03
71082;SHT31;58740;50.672;18.690;2022-07-23T08:00:45;29.34;40.78
71082;SHT31;58740;50.672;18.690;2022-07-23T08:03:13;29.42;41.44
71082;SHT31;58740;50.672;18.690;2022-07-23T08:05:42;29.51;40.09
71082;SHT31;58740;50.672;18.690;2022-07-23T08:08:10;29.54;39.66
71082;SHT31;58740;50.672;18.690;2022-07-23T08:10:42;29.54;39.32
71082;SHT31;58740;50.672;18.690;2022-07-23T08:13:14;29.57;39.48
71082;SHT31;58740;50.672;18.690;2022-07-23T08:15:43;29.63;39.65
71082;SHT31;58740;50.672;18.690;2022-07-23T08:18:13;29.63;38.90
71082;SHT31;58740;50.672;18.690;2022-07-23T08:20:41;29.65;38.60
71082;SHT31;58740;50.672;18.690;2022-07-23T08:23:09;29.69;38.82
71082;SHT31;58740;50.672;18.690;2022-07-23T08:25:37;29.65;38.31
71082;SHT31;58740;50.672;18.690;2022-07-23T08:28:09;29.63;38.37
71082;SHT31;58740;50.672;18.690;2022-07-23T08:30:40;29.70;38.34
71082;SHT31;58740;50.672;18.690;2022-07-23T08:33:12;29.80;37.23
71082;SHT31;58740;50.672;18.690;2022-07-23T08:36:00;29.88;36.95
71082;SHT31;58740;50.672;18.690;2022-07-23T08:38:32;29.95;37.35
71082;SHT31;58740;50.672;18.690;2022-07-23T08:41:00;30.02;37.38
71082;SHT31;58740;50.672;18.690;2022-07-23T08:43:30;30.07;36.82
71082;SHT31;58740;50.672;18.690;2022-07-23T08:46:01;30.08;36.40
71082;SHT31;58740;50.672;18.690;2022-07-23T08:48:32;30.05;35.70
71082;SHT31;58740;50.672;18.690;2022-07-23T08:51:06;30.05;36.22
71082;SHT31;58740;50.672;18.690;2022-07-23T08:53:34;30.04;36.04
71082;SHT31;58740;50.672;18.690;2022-07-23T08:56:05;29.99;36.16
71082;SHT31;58740;50.672;18.690;2022-07-23T08:58:34;29.94;36.50
71082;SHT31;58740;50.672;18.690;2022-07-23T09:01:02;29.94;36.76
71082;SHT31;58740;50.672;18.690;2022-07-23T09:03:31;30.02;36.91
71082;SHT31;58740;50.672;18.690;2022-07-23T09:06:02;30.07;36.44
71082;SHT31;58740;50.672;18.690;2022-07-23T09:08:40;30.12;35.99
71082;SHT31;58740;50.672;18.690;2022-07-23T09:11:11;30.15;35.89
71082;SHT31;58740;50.672;18.690;2022-07-23T09:16:27;30.24;36.41
71082;SHT31;58740;50.672;18.690;2022-07-23T09:18:58;30.32;37.04
71082;SHT31;58740;50.672;18.690;2022-07-23T09:24:09;30.46;36.34
71082;SHT31;58740;50.672;18.690;2022-07-23T09:26:45;30.43;35.19
71082;SHT31;58740;50.672;18.690;2022-07-23T09:29:21;30.38;35.57
71082;SHT31;58740;50.672;18.690;2022-07-23T09:31:55;30.35;36.76
71082;SHT31;58740;50.672;18.690;2022-07-23T09:34:33;30.31;35.84
71082;SHT31;58740;50.672;18.690;2022-07-23T09:37:09;30.29;35.60
71082;SHT31;58740;50.672;18.690;2022-07-23T09:39:47;30.26;35.36
71082;SHT31;58740;50.672;18.690;2022-07-23T09:42:17;30.26;35.48
71082;SHT31;58740;50.672;18.690;2022-07-23T09:44:51;30.26;35.90
71082;SHT31;58740;50.672;18.690;2022-07-23T09:47:23;30.25;35.45
71082;SHT31;58740;50.672;18.690;2022-07-23T09:50:00;30.23;35.16
71082;SHT31;58740;50.672;18.690;2022-07-23T09:52:43;30.20;35.95
71082;SHT31;58740;50.672;18.690;2022-07-23T09:55:16;30.20;35.09
71082;SHT31;58740;50.672;18.690;2022-07-23T09:57:46;30.19;34.79
71082;SHT31;58740;50.672;18.690;2022-07-23T10:00:18;30.15;34.29
71082;SHT31;58740;50.672;18.690;2022-07-23T10:02:47;30.14;34.60
71082;SHT31;58740;50.672;18.690;2022-07-23T10:05:17;30.15;34.41
71082;SHT31;58740;50.672;18.690;2022-07-23T10:07:45;30.13;34.57
71082;SHT31;58740;50.672;18.690;2022-07-23T10:10:19;30.14;35.05
71082;SHT31;58740;50.672;18.690;2022-07-23T10:12:51;30.16;35.36
71082;SHT31;58740;50.672;18.690;2022-07-23T10:15:28;30.16;35.00
71082;SHT31;58740;50.672;18.690;2022-07-23T10:17:57;30.17;34.19
71082;SHT31;58740;50.672;18.690;2022-07-23T10:20:25;30.17;33.11
71082;SHT31;58740;50.672;18.690;2022-07-23T10:31:52;30.44;32.89
71082;SHT31;58740;50.672;18.690;2022-07-23T10:34:54;30.52;32.88
71082;SHT31;58740;50.672;18.690;2022-07-23T10:37:44;30.56;32.37
71082;SHT31;58740;50.672;18.690;2022-07-23T10:40:17;30.55;32.13
71082;SHT31;58740;50.672;18.690;2022-07-23T10:42:49;30.56;32.37
71082;SHT31;58740;50.672;18.690;2022-07-23T10:45:27;30.55;32.33
71082;SHT31;58740;50.672;18.690;2022-07-23T10:51:05;30.55;31.69
71082;SHT31;58740;50.672;18.690;2022-07-23T10:56:17;30.60;32.35
71082;SHT31;58740;50.672;18.690;2022-07-23T10:59:26;30.69;32.51
71082;SHT31;58740;50.672;18.690;2022-07-23T11:01:53;30.75;31.92
71082;SHT31;58740;50.672;18.690;2022-07-23T11:04:51;30.77;32.52
71082;SHT31;58740;50.672;18.690;2022-07-23T11:07:20;30.83;33.32
71082;SHT31;58740;50.672;18.690;2022-07-23T11:09:49;30.91;33.21
71082;SHT31;58740;50.672;18.690;2022-07-23T11:15:07;30.92;34.36
71082;SHT31;58740;50.672;18.690;2022-07-23T11:25:34;30.99;33.95
71082;SHT31;58740;50.672;18.690;2022-07-23T11:28:15;30.94;34.67
71082;SHT31;58740;50.672;18.690;2022-07-23T11:30:48;30.92;34.67
71082;SHT31;58740;50.672;18.690;2022-07-23T11:33:16;30.90;34.28
71082;SHT31;58740;50.672;18.690;2022-07-23T11:35:48;30.86;33.91
71082;SHT31;58740;50.672;18.690;2022-07-23T11:38:30;30.82;34.53
71082;SHT31;58740;50.672;18.690;2022-07-23T11:41:00;30.79;34.15
71082;SHT31;58740;50.672;18.690;2022-07-23T11:43:28;30.78;34.10
71082;SHT31;58740;50.672;18.690;2022-07-23T11:45:59;30.75;34.69
71082;SHT31;58740;50.672;18.690;2022-07-23T11:48:28;30.75;34.89
71082;SHT31;58740;50.672;18.690;2022-07-23T11:51:02;30.74;34.91
71082;SHT31;58740;50.672;18.690;2022-07-23T11:53:31;30.70;34.68
71082;SHT31;58740;50.672;18.690;2022-07-23T11:58:38;30.64;34.54
71082;SHT31;58740;50.672;18.690;2022-07-23T12:01:20;30.58;34.92
71082;SHT31;58740;50.672;18.690;2022-07-23T12:03:50;30.58;35.77
71082;SHT31;58740;50.672;18.690;2022-07-23T12:06:19;30.59;36.15
71082;SHT31;58740;50.672;18.690;2022-07-23T12:08:47;30.58;36.52
71082;SHT31;58740;50.672;18.690;2022-07-23T12:11:15;30.57;36.18
71082;SHT31;58740;50.672;18.690;2022-07-23T12:13:42;30.53;35.85
71082;SHT31;58740;50.672;18.690;2022-07-23T12:16:10;30.46;35.46
71082;SHT31;58740;50.672;18.690;2022-07-23T12:18:38;30.41;35.63
71082;SHT31;58740;50.672;18.690;2022-07-23T12:21:06;30.36;35.62
71082;SHT31;58740;50.672;18.690;2022-07-23T12:23:36;30.32;35.70
71082;SHT31;58740;50.672;18.690;2022-07-23T12:26:05;30.26;36.09
71082;SHT31;58740;50.672;18.690;2022-07-23T12:28:34;30.22;35.91
71082;SHT31;58740;50.672;18.690;2022-07-23T12:31:05;30.18;36.03
71082;SHT31;58740;50.672;18.690;2022-07-23T12:33:33;30.18;36.38
71082;SHT31;58740;50.672;18.690;2022-07-23T12:36:08;30.22;36.45
71082;SHT31;58740;50.672;18.690;2022-07-23T12:38:39;30.26;36.34
71082;SHT31;58740;50.672;18.690;2022-07-23T12:41:11;30.28;36.94
71082;SHT31;58740;50.672;18.690;2022-07-23T12:43:39;30.28;37.20
71082;SHT31;58740;50.672;18.690;2022-07-23T12:46:13;30.27;37.28
71082;SHT31;58740;50.672;18.690;2022-07-23T12:53:58;30.15;37.63
71082;SHT31;58740;50.672;18.690;2022-07-23T12:56:37;30.10;37.66
71082;SHT31;58740;50.672;18.690;2022-07-23T12:59:15;30.08;37.62
71082;SHT31;58740;50.672;18.690;2022-07-23T13:01:52;30.03;37.90
71082;SHT31;58740;50.672;18.690;2022-07-23T13:04:29;29.97;38.00
71082;SHT31;58740;50.672;18.690;2022-07-23T13:06:59;29.92;37.99
71082;SHT31;58740;50.672;18.690;2022-07-23T13:09:32;29.87;37.97
71082;SHT31;58740;50.672;18.690;2022-07-23T13:12:08;29.82;38.12
71082;SHT31;58740;50.672;18.690;2022-07-23T13:14:38;29.78;38.39
71082;SHT31;58740;50.672;18.690;2022-07-23T13:17:06;29.69;39.99
71082;SHT31;58740;50.672;18.690;2022-07-23T13:19:34;29.36;44.72
71082;SHT31;58740;50.672;18.690;2022-07-23T13:22:01;28.84;48.47
71082;SHT31;58740;50.672;18.690;2022-07-23T13:24:36;28.24;51.25
71082;SHT31;58740;50.672;18.690;2022-07-23T13:27:06;27.71;52.80
71082;SHT31;58740;50.672;18.690;2022-07-23T13:29:39;27.28;54.61
71082;SHT31;58740;50.672;18.690;2022-07-23T13:32:08;26.99;56.35
71082;SHT31;58740;50.672;18.690;2022-07-23T13:34:37;26.72;56.63
71082;SHT31;58740;50.672;18.690;2022-07-23T13:37:07;26.53;57.83
71082;SHT31;58740;50.672;18.690;2022-07-23T13:39:35;26.40;58.34
71082;SHT31;58740;50.672;18.690;2022-07-23T13:42:05;26.32;59.16
71082;SHT31;58740;50.672;18.690;2022-07-23T13:44:34;26.19;59.45
71082;SHT31;58740;50.672;18.690;2022-07-23T13:47:03;26.04;59.99
71082;SHT31;58740;50.672;18.690;2022-07-23T13:49:31;25.88;60.56
71082;SHT31;58740;50.672;18.690;2022-07-23T13:52:02;25.75;60.90
71082;SHT31;58740;50.672;18.690;2022-07-23T13:54:34;25.64;61.41
71082;SHT31;58740;50.672;18.690;2022-07-23T13:57:03;25.54;61.84
71082;SHT31;58740;50.672;18.690;2022-07-23T13:59:32;25.47;62.17
71082;SHT31;58740;50.672;18.690;2022-07-23T14:02:00;25.42;62.35
71082;SHT31;58740;50.672;18.690;2022-07-23T14:04:50;25.43;62.56
71082;SHT31;58740;50.672;18.690;2022-07-23T14:07:19;25.44;62.70
71082;SHT31;58740;50.672;18.690;2022-07-23T14:09:48;25.43;62.63
71082;SHT31;58740;50.672;18.690;2022-07-23T14:12:16;25.43;62.74
71082;SHT31;58740;50.672;18.690;2022-07-23T14:14:44;25.44;62.70
71082;SHT31;58740;50.672;18.690;2022-07-23T14:17:12;25.49;63.07
71082;SHT31;58740;50.672;18.690;2022-07-23T14:19:40;25.53;63.04
71082;SHT31;58740;50.672;18.690;2022-07-23T14:22:09;25.59;62.96
71082;SHT31;58740;50.672;18.690;2022-07-23T14:24:36;25.61;62.70
71082;SHT31;58740;50.672;18.690;2022-07-23T14:27:04;25.62;62.66
71082;SHT31;58740;50.672;18.690;2022-07-23T14:29:33;25.64;62.61
71082;SHT31;58740;50.672;18.690;2022-07-23T14:32:01;25.64;62.58
71082;SHT31;58740;50.672;18.690;2022-07-23T14:34:30;25.63;62.46
71082;SHT31;58740;50.672;18.690;2022-07-23T14:37:01;25.61;62.58
71082;SHT31;58740;50.672;18.690;2022-07-23T14:39:30;25.61;62.62
71082;SHT31;58740;50.672;18.690;2022-07-23T14:41:58;25.61;62.71
71082;SHT31;58740;50.672;18.690;2022-07-23T14:44:26;25.61;62.84
71082;SHT31;58740;50.672;18.690;2022-07-23T14:46:55;25.62;62.99
71082;SHT31;58740;50.672;18.690;2022-07-23T14:49:23;25.63;62.92
71082;SHT31;58740;50.672;18.690;2022-07-23T14:51:54;25.63;62.68
71082;SHT31;58740;50.672;18.690;2022-07-23T14:54:23;25.62;62.76
71082;SHT31;58740;50.672;18.690;2022-07-23T14:56:53;25.61;62.79
71082;SHT31;58740;50.672;18.690;2022-07-23T14:59:23;25.61;62.76
71082;SHT31;58740;50.672;18.690;2022-07-23T15:01:52;25.65;62.93
71082;SHT31;58740;50.672;18.690;2022-07-23T15:04:21;25.70;62.75
71082;SHT31;58740;50.672;18.690;2022-07-23T15:07:05;25.73;62.41
71082;SHT31;58740;50.672;18.690;2022-07-23T15:09:32;25.75;62.33
71082;SHT31;58740;50.672;18.690;2022-07-23T15:12:02;25.79;62.41
71082;SHT31;58740;50.672;18.690;2022-07-23T15:14:36;25.81;62.19
71082;SHT31;58740;50.672;18.690;2022-07-23T15:17:05;25.78;62.13
71082;SHT31;58740;50.672;18.690;2022-07-23T15:19:32;25.78;62.00
71082;SHT31;58740;50.672;18.690;2022-07-23T15:22:00;25.78;62.09
71082;SHT31;58740;50.672;18.690;2022-07-23T15:24:28;25.74;62.25
71082;SHT31;58740;50.672;18.690;2022-07-23T15:26:56;25.71;62.25
71082;SHT31;58740;50.672;18.690;2022-07-23T15:29:25;25.70;62.29
71082;SHT31;58740;50.672;18.690;2022-07-23T15:31:53;25.72;62.15
71082;SHT31;58740;50.672;18.690;2022-07-23T15:34:27;25.74;62.09
71082;SHT31;58740;50.672;18.690;2022-07-23T15:36:59;25.71;61.92
71082;SHT31;58740;50.672;18.690;2022-07-23T15:39:28;25.71;62.00
71082;SHT31;58740;50.672;18.690;2022-07-23T15:41:55;25.75;61.94
71082;SHT31;58740;50.672;18.690;2022-07-23T15:44:24;25.79;61.65
71082;SHT31;58740;50.672;18.690;2022-07-23T15:46:56;25.82;61.62
71082;SHT31;58740;50.672;18.690;2022-07-23T15:49:25;25.86;61.56
71082;SHT31;58740;50.672;18.690;2022-07-23T15:51:55;25.94;61.49
71082;SHT31;58740;50.672;18.690;2022-07-23T15:54:24;25.99;60.98
71082;SHT31;58740;50.672;18.690;2022-07-23T15:56:52;26.04;60.88
71082;SHT31;58740;50.672;18.690;2022-07-23T15:59:21;26.07;60.61
71082;SHT31;58740;50.672;18.690;2022-07-23T16:01:56;26.05;60.38
71082;SHT31;58740;50.672;18.690;2022-07-23T16:04:24;26.05;60.41
71082;SHT31;58740;50.672;18.690;2022-07-23T16:06:53;26.04;60.28
71082;SHT31;58740;50.672;18.690;2022-07-23T16:09:21;25.99;60.16